createdAt,value
2019-01-29T03:33:01.183Z,13.27
2019-01-29T03:35:30.368Z,11.40
2019-01-29T03:38:00.185Z,14.27
2019-01-29T03:40:30.150Z,15.83
2019-01-29T03:42:59.574Z,12.67
2019-01-29T03:45:29.134Z,11.63
2019-01-29T03:47:58.875Z,12.27
2019-01-29T03:50:29.205Z,17.63
2019-01-29T04:06:23.276Z,17.77
2019-01-29T04:08:52.765Z,17.17
2019-01-29T04:11:22.242Z,16.73
2019-01-29T04:13:51.402Z,19.10
2019-01-29T04:16:20.964Z,18.93
2019-01-29T04:18:50.508Z,19.43
2019-01-29T04:21:20.108Z,19.13
2019-01-29T04:23:49.713Z,23.03
2019-01-29T04:26:19.340Z,19.33
2019-01-29T04:28:49.153Z,19.33
2019-01-29T04:55:24.259Z,22.57
2019-01-29T04:57:53.851Z,24.03
2019-01-29T05:00:25.970Z,23.57
2019-01-29T05:02:55.693Z,25.93
2019-01-29T05:05:45.954Z,25.07
2019-01-29T05:08:15.258Z,22.70
2019-01-29T05:10:44.740Z,20.83
2019-01-29T05:13:14.229Z,21.10
2019-01-29T05:15:43.754Z,23.20
2019-01-29T05:18:12.933Z,25.63
2019-01-29T05:20:42.585Z,22.53
2019-01-29T05:23:11.788Z,22.80
2019-01-29T05:25:41.593Z,23.67
2019-01-29T05:28:10.781Z,22.27
2019-01-29T05:30:40.279Z,18.33
2019-01-29T05:33:09.464Z,17.37
2019-01-29T05:35:38.664Z,16.03
2019-01-29T05:38:08.464Z,18.00
2019-01-29T05:40:37.658Z,19.07
2019-01-29T05:43:07.399Z,14.27
2019-01-29T05:45:37.224Z,16.30
2019-01-29T05:48:07.099Z,15.47
2019-01-29T05:50:36.273Z,14.33
2019-01-29T05:53:05.621Z,16.20
2019-01-29T05:55:34.798Z,15.20
2019-01-29T05:58:04.627Z,18.17
2019-01-29T06:33:24.840Z,25.63
2019-01-29T06:35:54.046Z,26.77
2019-01-29T06:38:23.524Z,18.80
2019-01-29T06:40:52.989Z,21.77
2019-01-29T06:43:22.203Z,21.57
2019-01-29T06:45:51.668Z,19.80
2019-01-29T06:48:20.867Z,21.93
2019-01-29T06:50:50.300Z,20.73
2019-01-29T06:53:19.770Z,23.07
2019-01-29T06:55:48.950Z,26.40
2019-01-29T06:58:18.733Z,23.90
2019-01-29T07:00:48.444Z,18.27
2019-01-29T07:03:18.432Z,23.93
2019-01-29T07:05:47.605Z,27.27
2019-01-29T07:08:17.347Z,23.53
2019-01-29T07:10:46.771Z,25.17
2019-01-29T07:13:16.240Z,25.40
2019-01-29T07:16:04.956Z,26.97
2019-01-29T07:18:53.357Z,30.10
2019-01-29T07:21:23.358Z,25.20
2019-01-29T07:23:52.551Z,26.60
2019-01-29T07:26:22.291Z,34.00
2019-01-29T07:28:51.524Z,27.77
2019-01-29T07:31:20.726Z,22.97
2019-01-29T07:33:49.926Z,24.70
2019-01-29T07:36:19.108Z,30.47
2019-01-29T07:38:48.580Z,27.53
2019-01-29T07:41:17.764Z,22.97
2019-01-29T07:43:46.973Z,23.37
2019-01-29T07:46:16.152Z,27.03
2019-01-29T07:48:45.904Z,25.57
2019-01-29T07:51:15.371Z,24.90
2019-01-29T07:53:44.907Z,23.77
2019-01-29T07:56:14.100Z,21.97
2019-01-29T07:58:44.310Z,22.07
2019-01-29T08:01:14.134Z,22.67
2019-01-29T08:03:43.622Z,21.90
2019-01-29T08:06:13.054Z,18.63
2019-01-29T08:08:42.244Z,17.00
2019-01-29T08:11:11.417Z,21.10
2019-01-29T08:13:40.896Z,18.50
2019-01-29T08:16:10.501Z,16.97
2019-01-29T08:18:39.960Z,19.00
2019-01-29T08:21:09.432Z,18.60
2019-01-29T08:23:38.631Z,18.07
2019-01-29T08:26:26.893Z,16.90
2019-01-29T08:28:56.387Z,16.27
2019-01-29T08:31:25.886Z,15.10
2019-01-29T08:33:55.100Z,16.63
2019-01-29T08:36:24.641Z,16.10
2019-01-29T08:38:54.780Z,15.80
2019-01-29T08:41:24.534Z,15.93
2019-01-29T08:43:53.732Z,17.90
2019-01-29T08:46:23.509Z,14.00
2019-01-29T08:48:52.945Z,34.77
2019-01-29T08:51:22.130Z,75.20
2019-01-29T08:53:51.575Z,77.50
2019-01-29T08:56:21.024Z,74.33
2019-01-29T08:58:50.232Z,75.83
2019-01-29T09:01:19.708Z,102.00
2019-01-29T09:03:49.354Z,117.90
2019-01-29T09:06:18.533Z,116.83
2019-01-29T09:12:11.923Z,22.27
2019-01-29T09:14:41.476Z,14.17
2019-01-29T09:17:10.648Z,9.47
2019-01-29T09:19:41.155Z,12.30
2019-01-29T09:22:10.713Z,10.27
2019-01-29T09:24:40.214Z,10.07
2019-01-29T09:27:09.686Z,10.73
2019-01-29T09:29:39.587Z,11.67
2019-01-29T09:32:08.802Z,9.93
2019-01-29T09:34:38.708Z,9.30
2019-01-29T09:37:07.880Z,17.40
2019-01-29T09:39:37.382Z,10.17
2019-01-29T09:44:56.806Z,12.57
2019-01-29T09:47:26.320Z,10.80
2019-01-29T09:49:56.121Z,12.13
2019-01-29T09:52:25.622Z,10.47
2019-01-29T09:54:54.805Z,10.27
2019-01-29T09:57:23.978Z,8.87
2019-01-29T09:59:53.202Z,7.93
2019-01-29T10:02:22.388Z,12.50
2019-01-29T10:04:51.588Z,7.70
2019-01-29T10:07:21.405Z,8.67
2019-01-29T10:09:51.376Z,6.67
2019-01-29T10:12:20.597Z,8.07
2019-01-29T10:14:50.146Z,5.60
2019-01-29T10:17:19.507Z,6.13
2019-01-29T10:19:48.969Z,7.30
2019-01-29T10:22:18.157Z,9.33
2019-01-29T11:28:43.225Z,7.37
2019-01-29T11:34:35.466Z,6.57
2019-01-29T11:37:12.507Z,3.70
2019-01-29T11:40:04.987Z,5.23
2019-01-29T12:06:25.394Z,3.70
2019-01-29T12:08:55.128Z,4.50
2019-01-29T12:11:28.290Z,4.40
2019-01-29T12:13:57.822Z,3.70
2019-01-29T12:16:47.500Z,4.47
2019-01-29T12:19:25.068Z,3.60
2019-01-29T12:21:54.740Z,5.60
2019-01-29T12:24:24.242Z,8.23
2019-01-29T12:26:53.707Z,7.00
2019-01-29T12:29:22.898Z,6.67
2019-01-29T12:31:52.417Z,6.23
2019-01-29T12:34:21.822Z,8.13
2019-01-29T12:36:51.333Z,4.50
2019-01-29T12:39:20.516Z,8.43
2019-01-29T12:41:49.719Z,7.47
2019-01-29T12:44:19.434Z,5.83
2019-01-29T12:46:48.635Z,5.03
2019-01-29T12:49:18.363Z,5.23
2019-01-29T12:52:06.766Z,5.87
2019-01-29T12:54:36.646Z,6.03
2019-01-29T12:57:05.852Z,6.93
2019-01-29T12:59:35.909Z,10.20
2019-01-29T13:02:05.190Z,5.07
2019-01-29T13:04:34.642Z,6.67
2019-01-29T13:07:03.950Z,5.90
2019-01-29T13:09:33.485Z,8.37
2019-01-29T13:12:02.679Z,6.73
2019-01-29T13:17:41.078Z,6.57
2019-01-29T13:20:11.001Z,5.90
2019-01-29T13:22:59.839Z,9.97
2019-01-29T13:25:29.044Z,8.10
2019-01-29T13:27:59.163Z,9.20
2019-01-29T13:30:30.544Z,12.53
2019-01-29T13:33:00.118Z,6.47
2019-01-29T13:35:31.953Z,10.40
2019-01-29T13:38:01.623Z,6.37
2019-01-29T13:40:31.061Z,9.10
2019-01-29T13:43:00.979Z,8.83
2019-01-29T13:45:30.163Z,6.20
2019-01-29T13:47:59.615Z,5.53
2019-01-29T13:50:34.634Z,9.27
2019-01-29T13:53:04.523Z,9.13
2019-01-29T13:55:33.707Z,8.77
2019-01-29T13:58:02.973Z,7.57
2019-01-29T14:00:33.069Z,7.93
2019-01-29T14:03:02.600Z,7.03
2019-01-29T14:05:32.126Z,7.13
2019-01-29T14:08:01.283Z,4.93
2019-01-29T14:10:30.440Z,8.57
2019-01-29T14:49:45.845Z,8.30
2019-01-29T14:52:16.312Z,5.63
2019-01-29T14:54:46.031Z,5.60
2019-01-29T14:57:15.268Z,4.77
2019-01-29T14:59:44.515Z,10.90
2019-01-29T15:02:13.703Z,8.17
2019-01-29T15:04:43.538Z,7.83
2019-01-29T15:07:13.121Z,5.77
2019-01-29T15:09:42.345Z,9.30
2019-01-29T15:12:11.569Z,4.97
2019-01-29T15:14:40.792Z,6.50
2019-01-29T15:17:28.934Z,7.07
2019-01-29T15:19:58.113Z,9.90
2019-01-29T15:22:27.421Z,12.00
2019-01-29T15:24:57.286Z,8.00
2019-01-29T15:27:27.319Z,8.20
2019-01-29T15:29:56.487Z,6.40
2019-01-29T15:32:26.153Z,10.93
2019-01-29T15:34:55.316Z,8.40
2019-01-29T15:37:24.896Z,6.57
2019-01-29T15:39:55.230Z,5.07
2019-01-29T15:42:24.706Z,10.77
2019-01-29T15:44:54.159Z,7.77
2019-01-29T15:47:23.618Z,7.13
2019-01-29T15:49:52.797Z,8.00
2019-01-29T15:52:22.325Z,7.60
2019-01-29T15:54:51.741Z,9.47
2019-01-29T15:57:20.959Z,9.40
2019-01-29T15:59:50.457Z,8.80
2019-01-29T16:02:19.972Z,7.80
2019-01-29T16:04:49.140Z,5.47
2019-01-29T16:07:18.712Z,11.00
2019-01-29T16:09:48.474Z,8.60
2019-01-29T16:12:17.702Z,6.73
2019-01-29T16:14:46.878Z,7.43
2019-01-29T16:17:16.985Z,9.30
2019-01-29T16:19:47.345Z,6.77
2019-01-29T16:22:16.817Z,6.60
2019-01-29T16:24:46.359Z,5.47
2019-01-29T16:27:22.562Z,7.07
2019-01-29T16:29:47.155Z,8.77
2019-01-29T16:32:16.362Z,9.47
2019-01-29T16:34:45.531Z,9.33
2019-01-29T16:37:14.991Z,7.20
2019-01-29T16:39:44.166Z,7.33
2019-01-29T16:42:13.367Z,6.93
2019-01-29T16:44:42.545Z,7.00
2019-01-29T16:47:11.789Z,9.30
2019-01-29T16:49:41.376Z,7.97
2019-01-29T16:52:10.848Z,8.80
2019-01-29T16:54:40.416Z,8.77
2019-01-29T16:57:10.693Z,7.83
2019-01-29T16:59:40.192Z,8.77
2019-01-29T17:02:09.391Z,5.63
2019-01-29T17:04:38.897Z,5.73
2019-01-29T17:07:08.158Z,6.53
2019-01-29T17:09:37.370Z,9.77
2019-01-29T17:12:06.812Z,8.23
2019-01-29T17:14:36.311Z,10.73
2019-01-29T17:17:05.750Z,7.83
2019-01-29T17:19:37.079Z,8.53
2019-01-29T17:22:07.007Z,8.57
2019-01-29T17:24:36.288Z,7.13
2019-01-29T17:27:05.592Z,7.80
2019-01-29T17:29:34.790Z,8.90
2019-01-29T17:32:06.336Z,8.83
2019-01-29T17:34:35.978Z,10.83
2019-01-29T17:37:05.583Z,9.70
2019-01-29T17:39:35.134Z,9.97
2019-01-29T17:42:04.809Z,11.80
2019-01-29T17:44:34.077Z,7.67
2019-01-29T17:47:03.700Z,6.50
2019-01-29T17:49:32.931Z,10.67
2019-01-29T17:52:02.439Z,7.43
2019-01-29T17:54:32.204Z,9.03
2019-01-29T17:57:02.037Z,13.50
2019-01-29T17:59:31.244Z,8.73
2019-01-29T18:02:00.972Z,9.33
2019-01-29T18:04:30.196Z,12.60
2019-01-29T18:06:59.668Z,11.27
2019-01-29T18:09:47.952Z,12.17
2019-01-29T18:12:17.675Z,14.70
2019-01-29T18:14:47.235Z,10.57
2019-01-29T18:17:16.409Z,8.70
2019-01-29T18:19:45.900Z,8.87
2019-01-29T18:22:36.501Z,11.27
2019-01-29T18:25:08.793Z,11.67
2019-01-29T18:27:38.536Z,11.20
2019-01-29T18:30:11.025Z,9.03
2019-01-29T18:32:40.532Z,8.70
2019-01-29T18:35:29.072Z,8.60
2019-01-29T18:37:58.922Z,8.27
2019-01-29T18:41:06.226Z,14.67
2019-01-29T19:21:54.303Z,10.60
2019-01-29T19:24:43.214Z,11.80
2019-01-29T19:27:12.665Z,11.07
2019-01-29T20:13:39.188Z,10.67
2019-01-29T20:30:47.287Z,10.77
2019-01-29T20:38:35.479Z,13.13
2019-01-29T20:51:54.205Z,11.40
2019-01-29T20:54:23.381Z,12.17
2019-01-29T21:05:41.110Z,10.30
2019-01-29T21:13:28.811Z,6.63
2019-01-29T21:15:58.544Z,7.10
2019-01-29T21:18:29.811Z,6.20
2019-01-29T21:20:59.666Z,6.37
2019-01-29T21:23:29.111Z,5.33
2019-01-29T21:26:01.727Z,6.83
2019-01-29T21:28:31.654Z,9.77
2019-01-29T21:31:01.424Z,5.33
2019-01-29T21:33:33.787Z,7.43
2019-01-29T21:36:05.554Z,7.13
2019-01-29T21:38:43.223Z,6.43
2019-01-29T21:41:13.767Z,6.83
2019-01-29T21:43:44.950Z,5.50
2019-01-29T21:46:14.652Z,7.77
2019-01-29T21:48:46.117Z,7.40
2019-01-29T21:51:15.622Z,8.97
2019-01-29T21:53:45.122Z,7.07
2019-01-29T21:56:14.331Z,11.10
2019-01-29T21:58:43.786Z,9.17
2019-01-29T22:01:15.024Z,11.90
2019-01-29T22:03:49.658Z,9.20
2019-01-29T22:06:20.014Z,7.90
2019-01-29T22:08:53.716Z,7.83
2019-01-29T22:11:24.933Z,5.90
2019-01-29T22:13:54.113Z,8.73
2019-01-29T22:16:23.311Z,8.13
2019-01-29T22:18:52.524Z,8.97
2019-01-29T22:21:22.123Z,8.77
2019-01-29T22:23:51.619Z,12.80
2019-01-29T22:26:20.817Z,9.97
2019-01-29T22:28:49.978Z,8.07
2019-01-29T22:31:20.426Z,9.27
2019-01-29T22:33:52.903Z,17.40
2019-01-29T22:36:22.546Z,9.77
2019-01-29T22:38:52.925Z,11.77
2019-01-29T22:41:22.684Z,13.40
2019-01-29T22:43:58.105Z,14.77
2019-01-29T22:46:27.572Z,12.17
2019-01-29T22:48:58.020Z,9.73
2019-01-29T22:51:30.695Z,10.93
2019-01-29T22:53:59.888Z,14.77
2019-01-29T22:56:29.351Z,12.67
2019-01-29T22:58:58.809Z,15.53
2019-01-29T23:01:47.106Z,12.27
2019-01-29T23:04:37.700Z,13.07
2019-01-29T23:07:44.967Z,11.90
2019-01-29T23:10:16.744Z,12.77
2019-01-29T23:12:47.501Z,14.40
2019-01-29T23:15:20.128Z,15.47
2019-01-29T23:17:49.341Z,15.30
2019-01-29T23:23:10.709Z,13.27
2019-01-29T23:25:42.321Z,13.97
2019-01-29T23:28:20.865Z,13.30
2019-01-29T23:36:29.734Z,12.03
2019-01-29T23:39:02.399Z,16.20
2019-01-29T23:41:36.244Z,15.20
2019-01-29T23:44:08.050Z,17.90
2019-01-29T23:46:48.472Z,14.57
2019-01-29T23:49:37.407Z,14.63
2019-01-29T23:52:07.872Z,16.47
2019-01-29T23:54:39.590Z,14.80
2019-01-29T23:57:08.791Z,16.33
2019-01-29T23:59:38.242Z,15.67
